Terminal Aerodrome Forecast
Issued by NWS

Home | Current Version | Previous Version | Text Only | Print | Product List | Glossary On
Versions: 1 2 3 4 5 6 7 8 9 10 11 12
713
FTUS46 KMTR 191722
TAFSTS
TAF
KSTS 191722Z 1918/2018 00000KT P6SM SCT250
     FM192300 VRB02KT P6SM FEW150 BKN200
     FM200300 00000KT P6SM FEW040 BKN140 OVC200
     FM201000 00000KT P6SM VCSH BKN030 OVC050
     FM201500 00000KT 6SM -SHRA BR BKN020 OVC040=

USA.gov is the U.S. government's official web portal to all federal, state and local government web resources and services.